Ostrander, Ohio
Current Conditions -  °F | °C
As of 8:19 AM on Sunday 23 Nov 2014 (Local Time) from KDLZ Reporting Station
Overcast Overcast  
Wind Chill: 40°   Ceiling: 8500
Heat Index: 45°   Visibility: 10mi
Dew Point: 36°   Wind: 8mph
Humidity: 71%   Direction: 150°SSE
Pressure: 30.01"   Gusts: NA
Location:  40.27°N, 83.21°W
Report Text: KDLZ 231319Z AUTO 15007KT 10SM SCT070 OVC085 07/02 A3001 RMK AO2
Loading
Personal Weather Stations






























Interactive Weather Map New forecast layout! Learn more

10-Day Weather Forecast

Advertisements
Track Severe Weather on mobile